Time,TemperatureF,DewpointF,PressureIn,WindDirection,WindDirectionDegrees,WindSpeedMPH,WindSpeedGustMPH,Humidity,HourlyPrecipIn,Conditions,Clouds,dailyrainin,SoftwareType,DateUTC
2013-02-19 00:00:00,22.8,2.6,30.17,ESE,112,4.0,10.0,41,0.00,,OVC080,0.00,VWS V14.01,2013-02-19 07:00:00,
2013-02-19 00:30:00,23.8,-1.1,30.17,ESE,112,4.0,11.0,33,0.00,,OVC080,0.00,VWS V14.01,2013-02-19 07:30:00,
2013-02-19 01:00:00,23.5,-5.6,30.16,ESE,112,5.0,11.0,27,0.00,,OVC080,0.00,VWS V14.01,2013-02-19 08:00:00,
2013-02-19 01:30:00,24.3,-9.1,30.15,ESE,112,5.0,13.0,22,0.00,,OVC080,0.00,VWS V14.01,2013-02-19 08:30:00,
2013-02-19 02:00:00,21.6,-8.0,30.14,ESE,112,3.0,10.0,26,0.00,,OVC080,0.00,VWS V14.01,2013-02-19 09:00:00,
2013-02-19 02:30:00,20.6,-8.8,30.16,East,90,3.0,9.0,26,0.00,,OVC080,0.00,VWS V14.01,2013-02-19 09:30:00,
2013-02-19 03:00:00,19.5,-9.0,30.16,West,270,1.0,4.0,27,0.00,,OVC080,0.00,VWS V14.01,2013-02-19 10:00:00,
2013-02-19 03:30:00,18.3,-10.8,30.16,SE,135,1.0,3.0,26,0.00,,OVC080,0.00,VWS V14.01,2013-02-19 10:30:00,
2013-02-19 04:00:00,17.8,-9.8,30.16,SE,135,2.0,6.0,28,0.00,,OVC080,0.00,VWS V14.01,2013-02-19 11:00:00,
2013-02-19 04:30:00,16.9,-9.9,30.16,ENE,68,2.0,5.0,29,0.00,,OVC080,0.00,VWS V14.01,2013-02-19 11:30:00,
2013-02-19 05:00:00,17.8,-12.9,30.16,ENE,68,0.0,3.0,24,0.00,,OVC080,0.00,VWS V14.01,2013-02-19 12:00:00,
2013-02-19 05:30:00,16.1,-10.6,30.16,SE,135,0.0,2.0,29,0.00,,OVC080,0.00,VWS V14.01,2013-02-19 12:30:00,
2013-02-19 06:00:00,13.7,-7.7,30.16,SE,135,0.0,0.0,37,0.00,,OVC080,0.00,VWS V14.01,2013-02-19 13:00:00,
2013-02-19 06:30:00,13.8,-8.8,30.17,SSE,158,1.0,3.0,35,0.00,,OVC080,0.00,VWS V14.01,2013-02-19 13:30:00,
2013-02-19 07:00:00,15.0,-8.9,30.18,ESE,112,0.0,2.0,33,0.00,,OVC080,0.00,VWS V14.01,2013-02-19 14:00:00,
2013-02-19 07:30:00,19.6,-2.4,30.18,SE,135,0.0,2.0,37,0.00,,OVC080,0.00,VWS V14.01,2013-02-19 14:30:00,
2013-02-19 08:00:00,22.9,-5.3,30.17,SW,225,0.0,4.0,28,0.00,,OVC080,0.00,VWS V14.01,2013-02-19 15:00:00,
2013-02-19 08:30:00,23.8,-1.7,30.17,SW,225,1.0,4.0,32,0.00,,OVC080,0.00,VWS V14.01,2013-02-19 15:30:00,
2013-02-19 09:00:00,26.3,1.8,30.17,NW,315,0.0,3.0,34,0.00,,OVC080,0.00,VWS V14.01,2013-02-19 16:00:00,
2013-02-19 09:30:00,30.1,-0.6,30.17,NNW,338,1.0,4.0,26,0.00,,OVC080,0.00,VWS V14.01,2013-02-19 16:30:00,
2013-02-19 10:00:00,33.0,-0.7,30.16,NNW,338,1.0,5.0,23,0.00,,OVC080,0.00,VWS V14.01,2013-02-19 17:00:00,
2013-02-19 10:30:00,36.3,-0.9,30.14,NE,45,1.0,4.0,20,0.00,,OVC080,0.00,VWS V14.01,2013-02-19 17:30:00,
2013-02-19 11:00:00,37.8,-5.7,30.12,NW,315,1.0,5.0,15,0.00,,OVC080,0.00,VWS V14.01,2013-02-19 18:00:00,
2013-02-19 11:30:00,40.7,-2.0,30.09,NNW,338,2.0,7.0,16,0.00,,OVC080,0.00,VWS V14.01,2013-02-19 18:30:00,
2013-02-19 12:00:00,43.0,1.2,30.06,NNW,338,2.0,7.0,17,0.00,,OVC080,0.00,VWS V14.01,2013-02-19 19:00:00,
2013-02-19 12:30:00,44.1,0.8,30.02,NW,315,2.0,7.0,16,0.00,,OVC080,0.00,VWS V14.01,2013-02-19 19:30:00,
2013-02-19 13:00:00,45.7,2.1,29.99,NNW,338,2.0,8.0,16,0.00,,OVC080,0.00,VWS V14.01,2013-02-19 20:00:00,
2013-02-19 13:30:00,48.5,3.0,29.95,NNW,338,3.0,8.0,15,0.00,,OVC080,0.00,VWS V14.01,2013-02-19 20:30:00,
2013-02-19 14:00:00,50.7,4.8,29.92,WNW,292,3.0,15.0,15,0.00,,OVC080,0.00,VWS V14.01,2013-02-19 21:00:00,
2013-02-19 14:30:00,50.0,6.9,29.91,West,270,12.0,22.0,17,0.00,,OVC080,0.00,VWS V14.01,2013-02-19 21:30:00,
2013-02-19 15:00:00,49.7,3.9,29.90,WSW,248,12.0,25.0,15,0.00,,OVC080,0.00,VWS V14.01,2013-02-19 22:00:00,
2013-02-19 15:30:00,47.5,3.6,29.89,WSW,248,11.0,25.0,16,0.00,,OVC080,0.00,VWS V14.01,2013-02-19 22:30:00,
2013-02-19 16:00:00,47.9,5.2,29.88,WSW,248,8.0,17.0,17,0.00,,OVC080,0.00,VWS V14.01,2013-02-19 23:00:00,
2013-02-19 16:30:00,45.8,4.7,29.87,SW,225,7.0,16.0,18,0.00,,OVC080,0.00,VWS V14.01,2013-02-19 23:30:00,
2013-02-19 17:00:00,44.8,5.1,29.86,WSW,248,3.0,11.0,19,0.00,,OVC080,0.00,VWS V14.01,2013-02-20 00:00:00,
2013-02-19 17:30:00,42.5,10.1,29.87,SE,135,4.0,10.0,26,0.00,,OVC080,0.00,VWS V14.01,2013-02-20 00:30:00,
2013-02-19 18:00:00,39.7,13.0,29.87,SE,135,7.0,13.0,33,0.00,,OVC080,0.00,VWS V14.01,2013-02-20 01:00:00,
2013-02-19 18:30:00,38.6,13.3,29.87,ESE,112,9.0,16.0,35,0.00,,OVC080,0.00,VWS V14.01,2013-02-20 01:30:00,
2013-02-19 19:00:00,38.8,12.9,29.86,SE,135,10.0,19.0,34,0.00,,OVC080,0.00,VWS V14.01,2013-02-20 02:00:00,
2013-02-19 19:30:00,38.2,13.6,29.85,SE,135,10.0,17.0,36,0.00,,OVC080,0.00,VWS V14.01,2013-02-20 02:30:00,
2013-02-19 20:00:00,37.8,13.9,29.85,SE,135,9.0,18.0,37,0.00,,OVC080,0.00,VWS V14.01,2013-02-20 03:00:00,
2013-02-19 20:30:00,37.1,14.4,29.85,SE,135,9.0,17.0,39,0.00,,OVC080,0.00,VWS V14.01,2013-02-20 03:30:00,
2013-02-19 21:00:00,36.7,15.2,29.84,SE,135,7.0,18.0,41,0.00,,OVC080,0.00,VWS V14.01,2013-02-20 04:00:00,
2013-02-19 21:30:00,37.6,15.5,29.84,SE,135,8.0,14.0,40,0.00,,OVC080,0.00,VWS V14.01,2013-02-20 04:30:00,
2013-02-19 22:00:00,34.1,15.5,29.83,East,90,3.0,9.0,46,0.00,,OVC080,0.00,VWS V14.01,2013-02-20 05:00:00,
2013-02-19 22:30:00,33.3,18.0,29.83,NE,45,1.0,5.0,53,0.00,,OVC080,0.00,VWS V14.01,2013-02-20 05:30:00,
2013-02-19 23:00:00,31.8,24.5,29.83,ESE,112,3.0,8.0,74,0.00,,OVC080,0.00,VWS V14.01,2013-02-20 06:00:00,
2013-02-19 23:30:00,30.8,25.4,29.81,ESE,112,6.0,13.0,80,0.00,,OVC080,0.00,VWS V14.01,2013-02-20 06:30:00,